sensor_id;sensor_type;location;lat;lon;timestamp;P1;durP1;ratioP1;P2;durP2;ratioP2
29938;SDS011;16799;50.844;5.304;2022-11-04T00:01:54;3.07;;;1.83;;
29938;SDS011;16799;50.844;5.304;2022-11-04T00:04:21;3.07;;;2.87;;
29938;SDS011;16799;50.844;5.304;2022-11-04T00:06:49;3.20;;;2.90;;
29938;SDS011;16799;50.844;5.304;2022-11-04T00:09:17;3.87;;;2.70;;
29938;SDS011;16799;50.844;5.304;2022-11-04T00:11:45;4.80;;;4.40;;
29938;SDS011;16799;50.844;5.304;2022-11-04T00:14:30;6.13;;;4.30;;
29938;SDS011;16799;50.844;5.304;2022-11-04T00:16:57;13.20;;;5.07;;
29938;SDS011;16799;50.844;5.304;2022-11-04T00:19:41;7.93;;;4.70;;
29938;SDS011;16799;50.844;5.304;2022-11-04T00:22:26;9.73;;;4.77;;
29938;SDS011;16799;50.844;5.304;2022-11-04T00:25:10;6.70;;;4.63;;
29938;SDS011;16799;50.844;5.304;2022-11-04T00:28:16;8.50;;;4.43;;
29938;SDS011;16799;50.844;5.304;2022-11-04T00:31:02;4.73;;;4.20;;
29938;SDS011;16799;50.844;5.304;2022-11-04T00:33:49;3.50;;;3.20;;
29938;SDS011;16799;50.844;5.304;2022-11-04T00:36:16;4.63;;;2.70;;
29938;SDS011;16799;50.844;5.304;2022-11-04T00:38:42;4.17;;;3.47;;
29938;SDS011;16799;50.844;5.304;2022-11-04T00:41:08;6.30;;;2.70;;
29938;SDS011;16799;50.844;5.304;2022-11-04T00:43:55;2.83;;;2.20;;
29938;SDS011;16799;50.844;5.304;2022-11-04T00:46:22;5.53;;;2.30;;
29938;SDS011;16799;50.844;5.304;2022-11-04T00:48:48;10.17;;;3.00;;
29938;SDS011;16799;50.844;5.304;2022-11-04T00:51:14;5.33;;;2.23;;
29938;SDS011;16799;50.844;5.304;2022-11-04T00:53:40;6.00;;;2.97;;
29938;SDS011;16799;50.844;5.304;2022-11-04T00:56:06;6.90;;;2.17;;
29938;SDS011;16799;50.844;5.304;2022-11-04T00:58:32;5.40;;;2.60;;
29938;SDS011;16799;50.844;5.304;2022-11-04T01:00:57;5.67;;;2.67;;
29938;SDS011;16799;50.844;5.304;2022-11-04T01:03:23;7.83;;;2.77;;
29938;SDS011;16799;50.844;5.304;2022-11-04T01:05:48;10.23;;;3.00;;
29938;SDS011;16799;50.844;5.304;2022-11-04T01:08:14;11.03;;;3.13;;
29938;SDS011;16799;50.844;5.304;2022-11-04T01:10:40;2.50;;;1.93;;
29938;SDS011;16799;50.844;5.304;2022-11-04T01:13:11;18.10;;;3.90;;
29938;SDS011;16799;50.844;5.304;2022-11-04T01:15:37;5.50;;;1.80;;
29938;SDS011;16799;50.844;5.304;2022-11-04T01:18:04;11.47;;;2.20;;
29938;SDS011;16799;50.844;5.304;2022-11-04T01:20:30;7.03;;;3.43;;
29938;SDS011;16799;50.844;5.304;2022-11-04T01:22:57;5.20;;;2.43;;
29938;SDS011;16799;50.844;5.304;2022-11-04T01:25:23;28.37;;;4.47;;
29938;SDS011;16799;50.844;5.304;2022-11-04T01:27:49;6.00;;;2.80;;
29938;SDS011;16799;50.844;5.304;2022-11-04T01:30:15;6.43;;;3.87;;
29938;SDS011;16799;50.844;5.304;2022-11-04T01:32:40;10.53;;;2.30;;
29938;SDS011;16799;50.844;5.304;2022-11-04T01:35:06;7.57;;;2.97;;
29938;SDS011;16799;50.844;5.304;2022-11-04T01:37:32;8.13;;;3.77;;
29938;SDS011;16799;50.844;5.304;2022-11-04T01:39:58;12.43;;;2.50;;
29938;SDS011;16799;50.844;5.304;2022-11-04T01:42:24;7.90;;;3.17;;
29938;SDS011;16799;50.844;5.304;2022-11-04T01:47:19;12.73;;;2.90;;
29938;SDS011;16799;50.844;5.304;2022-11-04T01:50:08;4.27;;;2.93;;
29938;SDS011;16799;50.844;5.304;2022-11-04T01:55:05;12.43;;;2.80;;
29938;SDS011;16799;50.844;5.304;2022-11-04T01:57:37;4.80;;;2.50;;
29938;SDS011;16799;50.844;5.304;2022-11-04T02:00:06;13.83;;;3.67;;
29938;SDS011;16799;50.844;5.304;2022-11-04T02:02:34;3.57;;;2.20;;
29938;SDS011;16799;50.844;5.304;2022-11-04T02:05:04;3.00;;;2.70;;
29938;SDS011;16799;50.844;5.304;2022-11-04T02:07:30;14.67;;;3.00;;
29938;SDS011;16799;50.844;5.304;2022-11-04T02:09:56;9.50;;;3.07;;
29938;SDS011;16799;50.844;5.304;2022-11-04T02:12:22;12.67;;;2.97;;
29938;SDS011;16799;50.844;5.304;2022-11-04T02:15:06;5.83;;;2.70;;
29938;SDS011;16799;50.844;5.304;2022-11-04T02:20:16;12.13;;;2.83;;
29938;SDS011;16799;50.844;5.304;2022-11-04T02:34:11;9.17;;;3.13;;
29938;SDS011;16799;50.844;5.304;2022-11-04T02:42:25;13.80;;;3.80;;
29938;SDS011;16799;50.844;5.304;2022-11-04T02:47:48;6.40;;;3.07;;
29938;SDS011;16799;50.844;5.304;2022-11-04T02:50:20;6.67;;;2.97;;
29938;SDS011;16799;50.844;5.304;2022-11-04T02:52:58;5.67;;;2.70;;
29938;SDS011;16799;50.844;5.304;2022-11-04T02:55:44;8.03;;;3.30;;
29938;SDS011;16799;50.844;5.304;2022-11-04T02:58:15;5.47;;;2.90;;
29938;SDS011;16799;50.844;5.304;2022-11-04T03:00:46;8.63;;;3.30;;
29938;SDS011;16799;50.844;5.304;2022-11-04T03:03:17;13.30;;;3.40;;
29938;SDS011;16799;50.844;5.304;2022-11-04T03:05:49;17.83;;;4.00;;
29938;SDS011;16799;50.844;5.304;2022-11-04T03:08:19;5.50;;;2.43;;
29938;SDS011;16799;50.844;5.304;2022-11-04T03:10:52;12.63;;;3.77;;
29938;SDS011;16799;50.844;5.304;2022-11-04T03:13:28;14.37;;;3.73;;
29938;SDS011;16799;50.844;5.304;2022-11-04T03:16:02;13.33;;;4.13;;
29938;SDS011;16799;50.844;5.304;2022-11-04T03:18:37;16.23;;;5.20;;
29938;SDS011;16799;50.844;5.304;2022-11-04T03:21:23;5.10;;;3.10;;
29938;SDS011;16799;50.844;5.304;2022-11-04T03:23:51;7.27;;;4.60;;
29938;SDS011;16799;50.844;5.304;2022-11-04T03:26:21;13.43;;;3.57;;
29938;SDS011;16799;50.844;5.304;2022-11-04T03:31:49;17.83;;;3.50;;
29938;SDS011;16799;50.844;5.304;2022-11-04T03:34:39;7.30;;;3.33;;
29938;SDS011;16799;50.844;5.304;2022-11-04T03:37:05;4.43;;;3.50;;
29938;SDS011;16799;50.844;5.304;2022-11-04T03:39:31;12.13;;;3.60;;
29938;SDS011;16799;50.844;5.304;2022-11-04T03:41:58;3.30;;;2.77;;
29938;SDS011;16799;50.844;5.304;2022-11-04T03:44:43;17.53;;;2.90;;
29938;SDS011;16799;50.844;5.304;2022-11-04T03:47:14;6.83;;;2.80;;
29938;SDS011;16799;50.844;5.304;2022-11-04T03:49:40;9.67;;;2.67;;
29938;SDS011;16799;50.844;5.304;2022-11-04T03:52:07;8.70;;;3.97;;
29938;SDS011;16799;50.844;5.304;2022-11-04T03:54:33;6.27;;;2.90;;
29938;SDS011;16799;50.844;5.304;2022-11-04T03:57:07;6.33;;;2.87;;
29938;SDS011;16799;50.844;5.304;2022-11-04T04:00:11;7.17;;;3.83;;
29938;SDS011;16799;50.844;5.304;2022-11-04T04:08:18;16.00;;;2.50;;
29938;SDS011;16799;50.844;5.304;2022-11-04T04:19:02;13.93;;;3.17;;
29938;SDS011;16799;50.844;5.304;2022-11-04T04:21:33;13.10;;;3.27;;
29938;SDS011;16799;50.844;5.304;2022-11-04T04:24:03;12.00;;;3.63;;
29938;SDS011;16799;50.844;5.304;2022-11-04T04:26:51;15.60;;;3.47;;
29938;SDS011;16799;50.844;5.304;2022-11-04T04:29:37;34.63;;;14.17;;
29938;SDS011;16799;50.844;5.304;2022-11-04T04:32:04;24.70;;;9.87;;
29938;SDS011;16799;50.844;5.304;2022-11-04T04:34:31;16.57;;;6.97;;
29938;SDS011;16799;50.844;5.304;2022-11-04T04:37:20;8.60;;;5.50;;
29938;SDS011;16799;50.844;5.304;2022-11-04T04:39:51;15.57;;;4.83;;
29938;SDS011;16799;50.844;5.304;2022-11-04T04:42:41;6.13;;;3.17;;
29938;SDS011;16799;50.844;5.304;2022-11-04T04:47:56;3.80;;;2.33;;
29938;SDS011;16799;50.844;5.304;2022-11-04T04:50:24;14.00;;;3.73;;
29938;SDS011;16799;50.844;5.304;2022-11-04T04:52:52;6.87;;;2.47;;
29938;SDS011;16799;50.844;5.304;2022-11-04T04:55:20;6.43;;;2.97;;
29938;SDS011;16799;50.844;5.304;2022-11-04T04:57:46;6.67;;;3.43;;
29938;SDS011;16799;50.844;5.304;2022-11-04T05:00:13;7.30;;;3.10;;
29938;SDS011;16799;50.844;5.304;2022-11-04T05:02:41;7.30;;;3.70;;
29938;SDS011;16799;50.844;5.304;2022-11-04T05:05:07;3.97;;;2.47;;
29938;SDS011;16799;50.844;5.304;2022-11-04T05:07:32;15.97;;;2.67;;
29938;SDS011;16799;50.844;5.304;2022-11-04T05:09:58;8.63;;;3.17;;
29938;SDS011;16799;50.844;5.304;2022-11-04T05:12:24;11.53;;;3.30;;
29938;SDS011;16799;50.844;5.304;2022-11-04T05:14:49;13.73;;;3.07;;
29938;SDS011;16799;50.844;5.304;2022-11-04T05:17:15;7.00;;;2.60;;
29938;SDS011;16799;50.844;5.304;2022-11-04T05:19:41;4.57;;;2.30;;
29938;SDS011;16799;50.844;5.304;2022-11-04T05:22:07;4.50;;;2.30;;
29938;SDS011;16799;50.844;5.304;2022-11-04T05:24:32;10.67;;;2.27;;
29938;SDS011;16799;50.844;5.304;2022-11-04T05:26:58;10.83;;;2.63;;
29938;SDS011;16799;50.844;5.304;2022-11-04T05:29:24;5.60;;;2.80;;
29938;SDS011;16799;50.844;5.304;2022-11-04T05:31:49;9.23;;;2.20;;
29938;SDS011;16799;50.844;5.304;2022-11-04T05:34:15;4.00;;;2.33;;
29938;SDS011;16799;50.844;5.304;2022-11-04T05:36:41;7.80;;;3.13;;
29938;SDS011;16799;50.844;5.304;2022-11-04T05:39:06;4.47;;;2.57;;
29938;SDS011;16799;50.844;5.304;2022-11-04T05:41:35;2.83;;;2.20;;
29938;SDS011;16799;50.844;5.304;2022-11-04T05:44:01;4.57;;;2.23;;
29938;SDS011;16799;50.844;5.304;2022-11-04T05:46:28;5.40;;;2.90;;
29938;SDS011;16799;50.844;5.304;2022-11-04T05:48:54;3.30;;;3.00;;
29938;SDS011;16799;50.844;5.304;2022-11-04T05:51:21;3.40;;;2.43;;
29938;SDS011;16799;50.844;5.304;2022-11-04T05:53:48;8.70;;;2.70;;
29938;SDS011;16799;50.844;5.304;2022-11-04T05:56:14;3.40;;;2.07;;
29938;SDS011;16799;50.844;5.304;2022-11-04T05:58:39;7.67;;;2.33;;
29938;SDS011;16799;50.844;5.304;2022-11-04T06:01:25;8.47;;;2.30;;
29938;SDS011;16799;50.844;5.304;2022-11-04T06:04:02;5.47;;;2.80;;
29938;SDS011;16799;50.844;5.304;2022-11-04T06:06:30;7.13;;;2.50;;
29938;SDS011;16799;50.844;5.304;2022-11-04T06:08:58;3.20;;;2.27;;
29938;SDS011;16799;50.844;5.304;2022-11-04T06:11:24;6.37;;;2.23;;
29938;SDS011;16799;50.844;5.304;2022-11-04T06:13:52;3.93;;;3.17;;
29938;SDS011;16799;50.844;5.304;2022-11-04T06:16:19;10.93;;;4.37;;
29938;SDS011;16799;50.844;5.304;2022-11-04T06:18:44;10.87;;;3.83;;
29938;SDS011;16799;50.844;5.304;2022-11-04T06:23:39;8.90;;;5.30;;
29938;SDS011;16799;50.844;5.304;2022-11-04T06:26:08;11.33;;;4.60;;
29938;SDS011;16799;50.844;5.304;2022-11-04T06:28:34;23.80;;;5.67;;
29938;SDS011;16799;50.844;5.304;2022-11-04T06:31:00;10.23;;;3.60;;
29938;SDS011;16799;50.844;5.304;2022-11-04T06:33:28;14.40;;;3.33;;
29938;SDS011;16799;50.844;5.304;2022-11-04T06:36:01;6.33;;;3.87;;
29938;SDS011;16799;50.844;5.304;2022-11-04T06:38:29;13.40;;;3.27;;
29938;SDS011;16799;50.844;5.304;2022-11-04T06:40:57;7.23;;;3.17;;
29938;SDS011;16799;50.844;5.304;2022-11-04T06:43:23;14.73;;;3.57;;
29938;SDS011;16799;50.844;5.304;2022-11-04T06:46:20;10.13;;;4.50;;
29938;SDS011;16799;50.844;5.304;2022-11-04T06:48:52;9.50;;;3.00;;
29938;SDS011;16799;50.844;5.304;2022-11-04T06:51:19;5.40;;;3.50;;
29938;SDS011;16799;50.844;5.304;2022-11-04T06:53:45;4.63;;;2.83;;
29938;SDS011;16799;50.844;5.304;2022-11-04T06:56:10;10.10;;;3.97;;
29938;SDS011;16799;50.844;5.304;2022-11-04T06:58:36;7.40;;;2.80;;
29938;SDS011;16799;50.844;5.304;2022-11-04T07:01:02;5.97;;;2.60;;
29938;SDS011;16799;50.844;5.304;2022-11-04T07:03:28;8.33;;;2.70;;
29938;SDS011;16799;50.844;5.304;2022-11-04T07:05:54;7.17;;;3.07;;
29938;SDS011;16799;50.844;5.304;2022-11-04T07:08:19;4.97;;;3.20;;
29938;SDS011;16799;50.844;5.304;2022-11-04T07:10:45;9.77;;;3.00;;
29938;SDS011;16799;50.844;5.304;2022-11-04T07:13:11;5.00;;;2.93;;
29938;SDS011;16799;50.844;5.304;2022-11-04T07:15:37;7.50;;;3.50;;
29938;SDS011;16799;50.844;5.304;2022-11-04T07:18:10;12.70;;;3.73;;
29938;SDS011;16799;50.844;5.304;2022-11-04T07:20:36;15.13;;;3.80;;
29938;SDS011;16799;50.844;5.304;2022-11-04T07:23:02;12.63;;;4.40;;
29938;SDS011;16799;50.844;5.304;2022-11-04T07:25:28;8.43;;;3.97;;
29938;SDS011;16799;50.844;5.304;2022-11-04T07:27:54;5.37;;;3.33;;
29938;SDS011;16799;50.844;5.304;2022-11-04T07:30:19;9.47;;;4.20;;
29938;SDS011;16799;50.844;5.304;2022-11-04T07:32:45;8.93;;;2.67;;
29938;SDS011;16799;50.844;5.304;2022-11-04T07:35:11;9.93;;;3.03;;
29938;SDS011;16799;50.844;5.304;2022-11-04T07:37:37;14.27;;;3.27;;
29938;SDS011;16799;50.844;5.304;2022-11-04T07:40:03;9.73;;;3.43;;
29938;SDS011;16799;50.844;5.304;2022-11-04T07:42:30;7.37;;;4.20;;
29938;SDS011;16799;50.844;5.304;2022-11-04T07:44:55;7.07;;;4.57;;
29938;SDS011;16799;50.844;5.304;2022-11-04T07:47:21;15.47;;;3.80;;
29938;SDS011;16799;50.844;5.304;2022-11-04T07:49:47;20.37;;;5.43;;
29938;SDS011;16799;50.844;5.304;2022-11-04T07:52:13;12.00;;;3.83;;
29938;SDS011;16799;50.844;5.304;2022-11-04T07:54:38;14.57;;;3.37;;
29938;SDS011;16799;50.844;5.304;2022-11-04T07:57:04;16.17;;;3.70;;
29938;SDS011;16799;50.844;5.304;2022-11-04T07:59:30;16.03;;;4.83;;
29938;SDS011;16799;50.844;5.304;2022-11-04T08:01:55;7.37;;;3.87;;
29938;SDS011;16799;50.844;5.304;2022-11-04T08:04:21;26.07;;;3.40;;
29938;SDS011;16799;50.844;5.304;2022-11-04T08:06:47;17.37;;;4.30;;
29938;SDS011;16799;50.844;5.304;2022-11-04T08:09:12;9.33;;;3.10;;
29938;SDS011;16799;50.844;5.304;2022-11-04T08:11:38;7.10;;;3.60;;
29938;SDS011;16799;50.844;5.304;2022-11-04T08:14:04;9.90;;;4.23;;
29938;SDS011;16799;50.844;5.304;2022-11-04T08:16:29;8.70;;;3.87;;
29938;SDS011;16799;50.844;5.304;2022-11-04T08:18:55;5.33;;;4.00;;
29938;SDS011;16799;50.844;5.304;2022-11-04T08:21:26;5.73;;;4.40;;
29938;SDS011;16799;50.844;5.304;2022-11-04T08:23:53;12.13;;;4.07;;
29938;SDS011;16799;50.844;5.304;2022-11-04T08:26:19;5.47;;;3.17;;
29938;SDS011;16799;50.844;5.304;2022-11-04T08:28:47;14.30;;;3.97;;
29938;SDS011;16799;50.844;5.304;2022-11-04T08:31:25;15.33;;;3.50;;
29938;SDS011;16799;50.844;5.304;2022-11-04T08:33:57;8.80;;;2.90;;
29938;SDS011;16799;50.844;5.304;2022-11-04T08:36:27;8.80;;;3.67;;
29938;SDS011;16799;50.844;5.304;2022-11-04T08:38:55;5.43;;;2.53;;
29938;SDS011;16799;50.844;5.304;2022-11-04T08:41:25;8.80;;;3.20;;
29938;SDS011;16799;50.844;5.304;2022-11-04T08:43:54;9.80;;;2.67;;
29938;SDS011;16799;50.844;5.304;2022-11-04T08:46:20;6.40;;;3.27;;
29938;SDS011;16799;50.844;5.304;2022-11-04T08:48:46;4.97;;;2.40;;
29938;SDS011;16799;50.844;5.304;2022-11-04T08:51:20;10.30;;;3.70;;
29938;SDS011;16799;50.844;5.304;2022-11-04T08:53:48;5.10;;;2.50;;
29938;SDS011;16799;50.844;5.304;2022-11-04T08:56:15;4.20;;;3.00;;
29938;SDS011;16799;50.844;5.304;2022-11-04T08:58:49;9.07;;;2.87;;
29938;SDS011;16799;50.844;5.304;2022-11-04T09:01:15;11.90;;;4.03;;
29938;SDS011;16799;50.844;5.304;2022-11-04T09:03:42;10.03;;;3.20;;
29938;SDS011;16799;50.844;5.304;2022-11-04T09:06:10;2.47;;;2.17;;
29938;SDS011;16799;50.844;5.304;2022-11-04T09:08:38;10.03;;;2.90;;
29938;SDS011;16799;50.844;5.304;2022-11-04T09:11:05;14.00;;;3.07;;
29938;SDS011;16799;50.844;5.304;2022-11-04T09:13:34;5.37;;;3.00;;
29938;SDS011;16799;50.844;5.304;2022-11-04T09:16:00;7.03;;;4.40;;
29938;SDS011;16799;50.844;5.304;2022-11-04T09:18:26;4.60;;;4.23;;
29938;SDS011;16799;50.844;5.304;2022-11-04T09:20:51;9.70;;;2.60;;
29938;SDS011;16799;50.844;5.304;2022-11-04T09:23:17;21.40;;;5.40;;
29938;SDS011;16799;50.844;5.304;2022-11-04T09:25:42;16.90;;;4.03;;
29938;SDS011;16799;50.844;5.304;2022-11-04T09:28:08;7.00;;;4.53;;
29938;SDS011;16799;50.844;5.304;2022-11-04T09:30:35;9.37;;;3.50;;
29938;SDS011;16799;50.844;5.304;2022-11-04T09:33:01;5.20;;;3.97;;
29938;SDS011;16799;50.844;5.304;2022-11-04T09:35:27;6.50;;;4.10;;
29938;SDS011;16799;50.844;5.304;2022-11-04T09:37:53;11.03;;;4.43;;
29938;SDS011;16799;50.844;5.304;2022-11-04T09:40:21;5.53;;;3.37;;
29938;SDS011;16799;50.844;5.304;2022-11-04T09:45:21;15.40;;;3.13;;
29938;SDS011;16799;50.844;5.304;2022-11-04T09:47:51;8.23;;;3.23;;
29938;SDS011;16799;50.844;5.304;2022-11-04T09:50:23;18.30;;;3.60;;
29938;SDS011;16799;50.844;5.304;2022-11-04T09:53:16;4.90;;;2.70;;
29938;SDS011;16799;50.844;5.304;2022-11-04T09:56:02;8.33;;;2.93;;
29938;SDS011;16799;50.844;5.304;2022-11-04T09:58:35;6.57;;;2.50;;
29938;SDS011;16799;50.844;5.304;2022-11-04T10:01:11;10.13;;;2.17;;
29938;SDS011;16799;50.844;5.304;2022-11-04T10:22:55;4.10;;;2.30;;
29938;SDS011;16799;50.844;5.304;2022-11-04T10:25:46;15.60;;;3.20;;
29938;SDS011;16799;50.844;5.304;2022-11-04T10:28:24;17.33;;;3.90;;
29938;SDS011;16799;50.844;5.304;2022-11-04T10:30:55;9.13;;;3.13;;
29938;SDS011;16799;50.844;5.304;2022-11-04T10:33:29;9.43;;;2.53;;
29938;SDS011;16799;50.844;5.304;2022-11-04T10:36:03;6.67;;;2.83;;
29938;SDS011;16799;50.844;5.304;2022-11-04T10:38:36;5.03;;;2.73;;
29938;SDS011;16799;50.844;5.304;2022-11-04T10:41:47;7.40;;;2.60;;
29938;SDS011;16799;50.844;5.304;2022-11-04T10:44:03;7.60;;;2.37;;
29938;SDS011;16799;50.844;5.304;2022-11-04T10:52:13;3.30;;;1.90;;
29938;SDS011;16799;50.844;5.304;2022-11-04T10:54:40;5.13;;;2.77;;
29938;SDS011;16799;50.844;5.304;2022-11-04T10:57:08;6.40;;;2.47;;
29938;SDS011;16799;50.844;5.304;2022-11-04T11:02:10;4.10;;;1.80;;
29938;SDS011;16799;50.844;5.304;2022-11-04T11:04:36;6.63;;;2.00;;
29938;SDS011;16799;50.844;5.304;2022-11-04T11:07:08;12.43;;;2.77;;
29938;SDS011;16799;50.844;5.304;2022-11-04T11:09:36;12.53;;;3.03;;
29938;SDS011;16799;50.844;5.304;2022-11-04T11:14:41;5.10;;;2.57;;
29938;SDS011;16799;50.844;5.304;2022-11-04T11:19:58;6.30;;;2.53;;
29938;SDS011;16799;50.844;5.304;2022-11-04T11:27:50;9.63;;;2.63;;
29938;SDS011;16799;50.844;5.304;2022-11-04T11:32:53;6.37;;;2.13;;
29938;SDS011;16799;50.844;5.304;2022-11-04T11:35:24;4.47;;;2.90;;
29938;SDS011;16799;50.844;5.304;2022-11-04T11:37:53;9.20;;;2.63;;
29938;SDS011;16799;50.844;5.304;2022-11-04T11:40:23;6.30;;;2.73;;
29938;SDS011;16799;50.844;5.304;2022-11-04T11:42:55;12.03;;;2.70;;
29938;SDS011;16799;50.844;5.304;2022-11-04T11:45:24;6.33;;;1.60;;
29938;SDS011;16799;50.844;5.304;2022-11-04T11:47:50;3.10;;;1.87;;
29938;SDS011;16799;50.844;5.304;2022-11-04T11:50:21;5.33;;;1.93;;
29938;SDS011;16799;50.844;5.304;2022-11-04T11:52:50;4.70;;;1.97;;
29938;SDS011;16799;50.844;5.304;2022-11-04T11:58:04;6.40;;;2.63;;
29938;SDS011;16799;50.844;5.304;2022-11-04T12:00:51;4.53;;;1.50;;
29938;SDS011;16799;50.844;5.304;2022-11-04T12:11:40;4.00;;;2.30;;
29938;SDS011;16799;50.844;5.304;2022-11-04T12:14:23;5.07;;;1.63;;
29938;SDS011;16799;50.844;5.304;2022-11-04T12:17:05;4.83;;;2.40;;
29938;SDS011;16799;50.844;5.304;2022-11-04T12:27:21;7.43;;;2.40;;
29938;SDS011;16799;50.844;5.304;2022-11-04T12:41:00;3.07;;;1.90;;
29938;SDS011;16799;50.844;5.304;2022-11-04T12:58:09;8.43;;;2.90;;
29938;SDS011;16799;50.844;5.304;2022-11-04T13:00:53;11.73;;;3.30;;
29938;SDS011;16799;50.844;5.304;2022-11-04T13:03:37;7.27;;;3.20;;
29938;SDS011;16799;50.844;5.304;2022-11-04T13:06:16;11.53;;;4.13;;
29938;SDS011;16799;50.844;5.304;2022-11-04T13:08:50;12.27;;;3.60;;
29938;SDS011;16799;50.844;5.304;2022-11-04T13:11:34;16.00;;;4.50;;
29938;SDS011;16799;50.844;5.304;2022-11-04T13:16:34;13.47;;;5.03;;
29938;SDS011;16799;50.844;5.304;2022-11-04T13:19:04;10.40;;;4.40;;
29938;SDS011;16799;50.844;5.304;2022-11-04T13:21:40;9.40;;;4.37;;
29938;SDS011;16799;50.844;5.304;2022-11-04T13:24:26;7.70;;;6.07;;
29938;SDS011;16799;50.844;5.304;2022-11-04T13:26:57;10.67;;;5.00;;
29938;SDS011;16799;50.844;5.304;2022-11-04T13:29:27;8.53;;;5.93;;
29938;SDS011;16799;50.844;5.304;2022-11-04T13:39:58;9.97;;;5.40;;
29938;SDS011;16799;50.844;5.304;2022-11-04T13:45:47;7.90;;;6.80;;
29938;SDS011;16799;50.844;5.304;2022-11-04T13:48:17;14.47;;;10.57;;
29938;SDS011;16799;50.844;5.304;2022-11-04T13:50:46;16.17;;;10.43;;
29938;SDS011;16799;50.844;5.304;2022-11-04T13:53:44;14.90;;;12.30;;
29938;SDS011;16799;50.844;5.304;2022-11-04T13:56:35;17.13;;;13.47;;
29938;SDS011;16799;50.844;5.304;2022-11-04T14:04:45;19.43;;;11.93;;
29938;SDS011;16799;50.844;5.304;2022-11-04T14:07:12;17.03;;;12.20;;
29938;SDS011;16799;50.844;5.304;2022-11-04T14:14:51;19.47;;;11.00;;
29938;SDS011;16799;50.844;5.304;2022-11-04T14:22:50;17.13;;;12.00;;
29938;SDS011;16799;50.844;5.304;2022-11-04T14:25:39;31.43;;;18.47;;
29938;SDS011;16799;50.844;5.304;2022-11-04T14:38:53;22.20;;;12.60;;
29938;SDS011;16799;50.844;5.304;2022-11-04T14:43:53;15.93;;;12.00;;
29938;SDS011;16799;50.844;5.304;2022-11-04T14:46:21;57.23;;;16.67;;
29938;SDS011;16799;50.844;5.304;2022-11-04T14:48:51;24.17;;;12.90;;
29938;SDS011;16799;50.844;5.304;2022-11-04T14:51:21;25.40;;;13.63;;
29938;SDS011;16799;50.844;5.304;2022-11-04T14:53:58;14.27;;;12.80;;
29938;SDS011;16799;50.844;5.304;2022-11-04T14:56:29;19.20;;;13.47;;
29938;SDS011;16799;50.844;5.304;2022-11-04T14:58:58;19.43;;;13.43;;
29938;SDS011;16799;50.844;5.304;2022-11-04T15:01:33;18.97;;;13.57;;
29938;SDS011;16799;50.844;5.304;2022-11-04T15:04:11;25.43;;;13.47;;
29938;SDS011;16799;50.844;5.304;2022-11-04T15:06:52;30.40;;;16.50;;
29938;SDS011;16799;50.844;5.304;2022-11-04T15:09:23;23.47;;;14.83;;
29938;SDS011;16799;50.844;5.304;2022-11-04T15:12:08;21.17;;;14.73;;
29938;SDS011;16799;50.844;5.304;2022-11-04T15:14:53;31.07;;;15.37;;
29938;SDS011;16799;50.844;5.304;2022-11-04T15:17:20;30.27;;;16.67;;
29938;SDS011;16799;50.844;5.304;2022-11-04T15:19:50;24.07;;;14.23;;
29938;SDS011;16799;50.844;5.304;2022-11-04T15:22:17;19.00;;;13.13;;
29938;SDS011;16799;50.844;5.304;2022-11-04T15:24:44;22.90;;;13.97;;
29938;SDS011;16799;50.844;5.304;2022-11-04T15:27:15;26.87;;;15.10;;
29938;SDS011;16799;50.844;5.304;2022-11-04T15:29:55;31.70;;;13.80;;
29938;SDS011;16799;50.844;5.304;2022-11-04T15:32:27;35.37;;;15.70;;
29938;SDS011;16799;50.844;5.304;2022-11-04T15:34:53;19.10;;;15.53;;
29938;SDS011;16799;50.844;5.304;2022-11-04T15:37:20;24.10;;;14.33;;
29938;SDS011;16799;50.844;5.304;2022-11-04T15:39:49;28.17;;;15.60;;
29938;SDS011;16799;50.844;5.304;2022-11-04T15:42:18;21.77;;;15.33;;
29938;SDS011;16799;50.844;5.304;2022-11-04T15:45:28;26.43;;;18.03;;
29938;SDS011;16799;50.844;5.304;2022-11-04T15:53:26;33.07;;;18.00;;
29938;SDS011;16799;50.844;5.304;2022-11-04T15:55:52;32.30;;;18.80;;
29938;SDS011;16799;50.844;5.304;2022-11-04T15:58:18;25.13;;;17.87;;
29938;SDS011;16799;50.844;5.304;2022-11-04T16:00:50;26.87;;;14.97;;
29938;SDS011;16799;50.844;5.304;2022-11-04T16:03:18;17.70;;;12.47;;
29938;SDS011;16799;50.844;5.304;2022-11-04T16:05:58;21.47;;;13.17;;
29938;SDS011;16799;50.844;5.304;2022-11-04T16:08:28;11.50;;;10.40;;
29938;SDS011;16799;50.844;5.304;2022-11-04T16:13:52;11.10;;;9.90;;
29938;SDS011;16799;50.844;5.304;2022-11-04T16:16:25;9.50;;;8.70;;
29938;SDS011;16799;50.844;5.304;2022-11-04T16:21:25;11.00;;;10.10;;
29938;SDS011;16799;50.844;5.304;2022-11-04T16:23:56;11.17;;;10.07;;
29938;SDS011;16799;50.844;5.304;2022-11-04T16:26:29;19.00;;;11.03;;
29938;SDS011;16799;50.844;5.304;2022-11-04T16:29:04;12.17;;;9.27;;
29938;SDS011;16799;50.844;5.304;2022-11-04T16:31:37;13.23;;;10.40;;
29938;SDS011;16799;50.844;5.304;2022-11-04T16:34:04;16.00;;;9.83;;
29938;SDS011;16799;50.844;5.304;2022-11-04T16:36:34;10.17;;;8.90;;
29938;SDS011;16799;50.844;5.304;2022-11-04T16:39:00;14.13;;;9.27;;
29938;SDS011;16799;50.844;5.304;2022-11-04T16:41:29;8.93;;;8.00;;
29938;SDS011;16799;50.844;5.304;2022-11-04T16:43:58;9.53;;;8.63;;
29938;SDS011;16799;50.844;5.304;2022-11-04T16:46:24;9.30;;;8.10;;
29938;SDS011;16799;50.844;5.304;2022-11-04T16:48:50;16.67;;;11.17;;
29938;SDS011;16799;50.844;5.304;2022-11-04T16:51:16;17.20;;;11.50;;
29938;SDS011;16799;50.844;5.304;2022-11-04T16:53:47;10.10;;;8.90;;
29938;SDS011;16799;50.844;5.304;2022-11-04T16:56:15;10.57;;;9.50;;
29938;SDS011;16799;50.844;5.304;2022-11-04T16:58:42;19.83;;;11.07;;
29938;SDS011;16799;50.844;5.304;2022-11-04T17:01:11;10.37;;;8.67;;
29938;SDS011;16799;50.844;5.304;2022-11-04T17:03:39;12.53;;;10.97;;
29938;SDS011;16799;50.844;5.304;2022-11-04T17:06:08;12.40;;;10.07;;
29938;SDS011;16799;50.844;5.304;2022-11-04T17:08:35;11.97;;;10.83;;
29938;SDS011;16799;50.844;5.304;2022-11-04T17:11:02;14.47;;;11.80;;
29938;SDS011;16799;50.844;5.304;2022-11-04T17:13:28;13.10;;;11.70;;
29938;SDS011;16799;50.844;5.304;2022-11-04T17:15:54;14.40;;;12.20;;
29938;SDS011;16799;50.844;5.304;2022-11-04T17:18:20;16.20;;;12.90;;
29938;SDS011;16799;50.844;5.304;2022-11-04T17:20:52;17.57;;;13.47;;
29938;SDS011;16799;50.844;5.304;2022-11-04T17:23:19;14.23;;;12.60;;
29938;SDS011;16799;50.844;5.304;2022-11-04T17:25:46;15.23;;;12.70;;
29938;SDS011;16799;50.844;5.304;2022-11-04T17:28:12;15.30;;;11.83;;
29938;SDS011;16799;50.844;5.304;2022-11-04T17:30:38;15.43;;;13.10;;
29938;SDS011;16799;50.844;5.304;2022-11-04T17:33:05;15.90;;;13.40;;
29938;SDS011;16799;50.844;5.304;2022-11-04T17:35:32;17.83;;;13.30;;
29938;SDS011;16799;50.844;5.304;2022-11-04T17:38:01;18.17;;;13.23;;
29938;SDS011;16799;50.844;5.304;2022-11-04T17:40:27;16.87;;;14.23;;
29938;SDS011;16799;50.844;5.304;2022-11-04T17:42:53;15.77;;;14.00;;
29938;SDS011;16799;50.844;5.304;2022-11-04T17:45:38;20.43;;;17.00;;
29938;SDS011;16799;50.844;5.304;2022-11-04T17:48:05;17.53;;;15.20;;
29938;SDS011;16799;50.844;5.304;2022-11-04T17:50:32;14.30;;;12.53;;
29938;SDS011;16799;50.844;5.304;2022-11-04T17:52:57;13.93;;;12.53;;
29938;SDS011;16799;50.844;5.304;2022-11-04T17:55:23;19.17;;;12.63;;
29938;SDS011;16799;50.844;5.304;2022-11-04T17:57:49;16.20;;;12.97;;
29938;SDS011;16799;50.844;5.304;2022-11-04T18:00:14;19.27;;;12.23;;
29938;SDS011;16799;50.844;5.304;2022-11-04T18:02:40;20.33;;;14.97;;
29938;SDS011;16799;50.844;5.304;2022-11-04T18:05:06;25.20;;;12.40;;
29938;SDS011;16799;50.844;5.304;2022-11-04T18:07:33;12.03;;;10.97;;
29938;SDS011;16799;50.844;5.304;2022-11-04T18:09:58;15.83;;;12.53;;